Alta Sierra, California
Current Conditions -  °F | °C
As of 4:20 PM on Wednesday 26 Nov 2014 (Local Time) from KGOO Reporting Station
Clear Clear  
Wind Chill: 63°   Ceiling: Unl
Heat Index: 63°   Visibility: 10mi
Dew Point: 41°   Wind: 3mph
Humidity: 45%   Direction: 140°SE
Pressure: 30.29"   Gusts: NA
Location:  39.2183°N, 120.924°W
Report Text: KGOO 270020Z AUTO 14003KT 10SM CLR 17/05 A3029 RMK AO1
Loading
Personal Weather Stations






























Interactive Weather Map New forecast layout! Learn more

10-Day Weather Forecast

Advertisements
Track Severe Weather on mobile